Time,TemperatureF,DewpointF,PressureIn,WindDirection,WindDirectionDegrees,WindSpeedMPH,WindSpeedGustMPH,Humidity,HourlyPrecipIn,Conditions,Clouds,dailyrainin,SolarRadiationWatts/m^2,SoftwareType,DateUTC
2013-07-22 00:02:00,84.0,67.0,-100.00,South,186,9.0,17.0,56,0.00,,,0.00,0.000000,,2013-07-22 05:02:00,
2013-07-22 00:32:00,82.0,67.0,-100.00,South,191,6.0,15.0,61,0.00,,,0.00,0.000000,,2013-07-22 05:32:00,
2013-07-22 00:43:00,82.0,67.0,-100.00,South,191,6.0,15.0,61,0.00,,,0.00,0.000000,,2013-07-22 05:43:00,
2013-07-22 00:52:00,82.0,67.0,-100.00,South,191,6.0,15.0,61,0.00,,,0.00,0.000000,,2013-07-22 05:52:00,
2013-07-22 01:01:00,82.0,67.0,-100.00,South,191,6.0,15.0,61,0.00,,,0.00,0.000000,,2013-07-22 06:01:00,
2013-07-22 01:33:00,81.0,68.0,-100.00,South,180,8.0,14.0,64,0.00,,,0.00,0.000000,,2013-07-22 06:33:00,
2013-07-22 01:43:00,81.0,68.0,-100.00,South,180,8.0,14.0,64,0.00,,,0.00,0.000000,,2013-07-22 06:43:00,
2013-07-22 01:52:00,81.0,68.0,-100.00,South,180,8.0,14.0,64,0.00,,,0.00,0.000000,,2013-07-22 06:52:00,
2013-07-22 02:01:00,81.0,68.0,-100.00,South,180,8.0,14.0,64,0.00,,,0.00,0.000000,,2013-07-22 07:01:00,
2013-07-22 02:33:00,79.0,68.0,-100.00,South,189,8.0,14.0,69,0.00,,,0.00,0.000000,,2013-07-22 07:33:00,
2013-07-22 02:43:00,79.0,68.0,-100.00,South,189,8.0,14.0,69,0.00,,,0.00,0.000000,,2013-07-22 07:43:00,
2013-07-22 02:53:00,79.0,68.0,-100.00,South,189,8.0,14.0,69,0.00,,,0.00,0.000000,,2013-07-22 07:53:00,
2013-07-22 03:02:00,79.0,68.0,-100.00,South,189,8.0,14.0,69,0.00,,,0.00,0.000000,,2013-07-22 08:02:00,
2013-07-22 03:32:00,78.0,69.0,-100.00,South,180,8.0,12.0,74,0.00,,,0.00,0.000000,,2013-07-22 08:32:00,
2013-07-22 03:43:00,78.0,69.0,-100.00,South,180,8.0,12.0,74,0.00,,,0.00,0.000000,,2013-07-22 08:43:00,
2013-07-22 03:52:00,78.0,69.0,-100.00,South,180,8.0,12.0,74,0.00,,,0.00,0.000000,,2013-07-22 08:52:00,
2013-07-22 04:02:00,78.0,69.0,-100.00,South,180,8.0,12.0,74,0.00,,,0.00,0.000000,,2013-07-22 09:02:00,
2013-07-22 04:33:00,77.0,70.0,-100.00,South,183,9.0,14.0,78,0.00,,,0.00,0.000000,,2013-07-22 09:33:00,
2013-07-22 04:42:00,77.0,70.0,-100.00,South,183,9.0,14.0,78,0.00,,,0.00,0.000000,,2013-07-22 09:42:00,
2013-07-22 04:52:00,77.0,70.0,-100.00,South,183,9.0,14.0,78,0.00,,,0.00,0.000000,,2013-07-22 09:52:00,
2013-07-22 05:02:00,77.0,70.0,-100.00,South,183,9.0,14.0,78,0.00,,,0.00,0.000000,,2013-07-22 10:02:00,
2013-07-22 05:32:00,77.0,71.0,-100.00,South,191,7.0,12.0,83,0.00,,,0.00,0.000000,,2013-07-22 10:32:00,
2013-07-22 05:43:00,77.0,71.0,-100.00,South,191,7.0,12.0,83,0.00,,,0.00,0.000000,,2013-07-22 10:43:00,
2013-07-22 05:53:00,77.0,71.0,-100.00,South,191,7.0,12.0,83,0.00,,,0.00,0.000000,,2013-07-22 10:53:00,
2013-07-22 06:01:00,77.0,71.0,-100.00,South,191,7.0,12.0,83,0.00,,,0.00,0.000000,,2013-07-22 11:01:00,
2013-07-22 06:32:00,77.0,72.0,-100.00,South,190,6.0,12.0,84,0.00,,,0.00,0.000000,,2013-07-22 11:32:00,
2013-07-22 06:43:00,77.0,72.0,-100.00,South,190,6.0,12.0,84,0.00,,,0.00,0.000000,,2013-07-22 11:43:00,
2013-07-22 06:52:00,77.0,72.0,-100.00,South,190,6.0,12.0,84,0.00,,,0.00,0.000000,,2013-07-22 11:52:00,
2013-07-22 07:02:00,77.0,72.0,-100.00,South,190,6.0,12.0,84,0.00,,,0.00,0.000000,,2013-07-22 12:02:00,
2013-07-22 07:33:00,76.0,72.0,-100.00,South,178,4.0,11.0,86,0.00,,,0.00,7.000000,,2013-07-22 12:33:00,
2013-07-22 07:43:00,76.0,72.0,-100.00,South,178,4.0,11.0,86,0.00,,,0.00,7.000000,,2013-07-22 12:43:00,
2013-07-22 07:53:00,76.0,72.0,-100.00,South,178,4.0,11.0,86,0.00,,,0.00,7.000000,,2013-07-22 12:53:00,
2013-07-22 08:01:00,76.0,72.0,-100.00,South,178,4.0,11.0,86,0.00,,,0.00,7.000000,,2013-07-22 13:01:00,
2013-07-22 08:32:00,80.0,74.0,-100.00,South,182,6.0,11.0,83,0.00,,,0.00,114.000000,,2013-07-22 13:32:00,
2013-07-22 08:43:00,80.0,74.0,-100.00,South,182,6.0,11.0,83,0.00,,,0.00,114.000000,,2013-07-22 13:43:00,
2013-07-22 08:53:00,80.0,74.0,-100.00,South,182,6.0,11.0,83,0.00,,,0.00,114.000000,,2013-07-22 13:53:00,
2013-07-22 09:01:00,80.0,74.0,-100.00,South,182,6.0,11.0,83,0.00,,,0.00,114.000000,,2013-07-22 14:01:00,
2013-07-22 09:32:00,83.0,73.0,-100.00,SSW,206,10.0,14.0,73,0.00,,,0.00,307.000000,,2013-07-22 14:32:00,
2013-07-22 09:43:00,83.0,73.0,-100.00,SSW,206,10.0,14.0,73,0.00,,,0.00,307.000000,,2013-07-22 14:43:00,
2013-07-22 09:53:00,83.0,73.0,-100.00,SSW,206,10.0,14.0,73,0.00,,,0.00,307.000000,,2013-07-22 14:53:00,
2013-07-22 10:02:00,83.0,73.0,-100.00,SSW,206,10.0,14.0,73,0.00,,,0.00,307.000000,,2013-07-22 15:02:00,
2013-07-22 10:33:00,87.0,73.0,-100.00,SW,216,10.0,16.0,64,0.00,,,0.00,548.000000,,2013-07-22 15:33:00,
2013-07-22 10:43:00,87.0,73.0,-100.00,SW,216,10.0,16.0,64,0.00,,,0.00,548.000000,,2013-07-22 15:43:00,
2013-07-22 10:52:00,87.0,73.0,-100.00,SW,216,10.0,16.0,64,0.00,,,0.00,548.000000,,2013-07-22 15:52:00,
2013-07-22 11:01:00,87.0,73.0,-100.00,SW,216,10.0,16.0,64,0.00,,,0.00,548.000000,,2013-07-22 16:01:00,
2013-07-22 11:32:00,89.0,72.0,-100.00,SSW,211,9.0,19.0,58,0.00,,,0.00,748.000000,,2013-07-22 16:32:00,
2013-07-22 11:43:00,89.0,72.0,-100.00,SSW,211,9.0,19.0,58,0.00,,,0.00,748.000000,,2013-07-22 16:43:00,
2013-07-22 11:52:00,89.0,72.0,-100.00,SSW,211,9.0,19.0,58,0.00,,,0.00,748.000000,,2013-07-22 16:52:00,
2013-07-22 12:01:00,89.0,72.0,-100.00,SSW,211,9.0,19.0,58,0.00,,,0.00,748.000000,,2013-07-22 17:01:00,
2013-07-22 12:33:00,90.0,72.0,-100.00,SSW,193,9.0,17.0,56,0.00,,,0.00,701.000000,,2013-07-22 17:33:00,
2013-07-22 12:43:00,90.0,72.0,-100.00,SSW,193,9.0,17.0,56,0.00,,,0.00,701.000000,,2013-07-22 17:43:00,
2013-07-22 12:52:00,90.0,72.0,-100.00,SSW,193,9.0,17.0,56,0.00,,,0.00,701.000000,,2013-07-22 17:52:00,
2013-07-22 13:04:00,90.0,72.0,-100.00,SSW,193,9.0,17.0,56,0.00,,,0.00,701.000000,,2013-07-22 18:04:00,
2013-07-22 13:54:00,92.0,72.0,-100.00,South,180,9.0,14.0,53,0.00,,,-99.99,859.000000,,2013-07-22 18:54:00,
2013-07-22 14:04:00,92.0,72.0,-100.00,South,180,9.0,14.0,53,0.00,,,-99.99,859.000000,,2013-07-22 19:04:00,
2013-07-22 14:37:00,93.0,72.0,-100.00,South,188,9.0,16.0,50,0.00,,,0.00,718.000000,,2013-07-22 19:37:00,
2013-07-22 14:46:00,93.0,72.0,-100.00,South,188,9.0,16.0,50,0.00,,,0.00,718.000000,,2013-07-22 19:46:00,
2013-07-22 14:55:00,93.0,72.0,-100.00,South,188,9.0,16.0,50,0.00,,,0.00,718.000000,,2013-07-22 19:55:00,
2013-07-22 15:03:00,93.0,72.0,-100.00,South,188,9.0,16.0,50,0.00,,,0.00,718.000000,,2013-07-22 20:03:00,
2013-07-22 15:32:00,96.0,70.0,-100.00,South,170,9.0,17.0,43,0.00,,,0.00,891.000000,,2013-07-22 20:32:00,
2013-07-22 15:43:00,96.0,70.0,-100.00,South,170,9.0,17.0,43,0.00,,,0.00,891.000000,,2013-07-22 20:43:00,
2013-07-22 15:52:00,96.0,70.0,-100.00,South,170,9.0,17.0,43,0.00,,,0.00,891.000000,,2013-07-22 20:52:00,
2013-07-22 16:01:00,96.0,70.0,-100.00,South,170,9.0,17.0,43,0.00,,,0.00,891.000000,,2013-07-22 21:01:00,
2013-07-22 16:33:00,93.0,67.0,-100.00,SSE,157,10.0,15.0,43,0.00,,,0.00,709.000000,,2013-07-22 21:33:00,
2013-07-22 16:43:00,93.0,67.0,-100.00,SSE,157,10.0,15.0,43,0.00,,,0.00,709.000000,,2013-07-22 21:43:00,
2013-07-22 16:53:00,93.0,67.0,-100.00,SSE,157,10.0,15.0,43,0.00,,,0.00,709.000000,,2013-07-22 21:53:00,
2013-07-22 17:01:00,93.0,67.0,-100.00,SSE,157,10.0,15.0,43,0.00,,,0.00,709.000000,,2013-07-22 22:01:00,
2013-07-22 17:32:00,95.0,69.0,-100.00,South,185,9.0,18.0,43,0.00,,,0.00,477.000000,,2013-07-22 22:32:00,
2013-07-22 17:43:00,95.0,69.0,-100.00,South,185,9.0,18.0,43,0.00,,,0.00,477.000000,,2013-07-22 22:43:00,
2013-07-22 17:52:00,95.0,69.0,-100.00,South,185,9.0,18.0,43,0.00,,,0.00,477.000000,,2013-07-22 22:52:00,
2013-07-22 18:01:00,95.0,69.0,-100.00,South,185,9.0,18.0,43,0.00,,,0.00,477.000000,,2013-07-22 23:01:00,
2013-07-22 18:32:00,95.0,70.0,-100.00,SSE,167,11.0,18.0,44,0.00,,,0.00,531.000000,,2013-07-22 23:32:00,
2013-07-22 18:43:00,95.0,70.0,-100.00,SSE,167,11.0,18.0,44,0.00,,,0.00,531.000000,,2013-07-22 23:43:00,
2013-07-22 18:52:00,95.0,70.0,-100.00,SSE,167,11.0,18.0,44,0.00,,,0.00,531.000000,,2013-07-22 23:52:00,
2013-07-22 19:01:00,95.0,70.0,-100.00,SSE,167,11.0,18.0,44,0.00,,,0.00,531.000000,,2013-07-23 00:01:00,
2013-07-22 19:32:00,93.0,67.0,-100.00,South,186,9.0,15.0,43,0.00,,,0.00,340.000000,,2013-07-23 00:32:00,
2013-07-22 19:43:00,93.0,67.0,-100.00,South,186,9.0,15.0,43,0.00,,,0.00,340.000000,,2013-07-23 00:43:00,
2013-07-22 19:52:00,93.0,67.0,-100.00,South,186,9.0,15.0,43,0.00,,,0.00,340.000000,,2013-07-23 00:52:00,
2013-07-22 20:01:00,93.0,67.0,-100.00,South,186,9.0,15.0,43,0.00,,,0.00,340.000000,,2013-07-23 01:01:00,
2013-07-22 20:32:00,92.0,65.0,-100.00,South,169,7.0,15.0,41,0.00,,,0.00,149.000000,,2013-07-23 01:32:00,
2013-07-22 20:43:00,92.0,65.0,-100.00,South,169,7.0,15.0,41,0.00,,,0.00,149.000000,,2013-07-23 01:43:00,
2013-07-22 20:53:00,92.0,65.0,-100.00,South,169,7.0,15.0,41,0.00,,,0.00,149.000000,,2013-07-23 01:53:00,
2013-07-22 21:01:00,92.0,65.0,-100.00,South,169,7.0,15.0,41,0.00,,,0.00,149.000000,,2013-07-23 02:01:00,
2013-07-22 21:33:00,87.0,66.0,-100.00,South,179,3.0,11.0,50,0.00,,,0.00,16.000000,,2013-07-23 02:33:00,
2013-07-22 21:43:00,87.0,66.0,-100.00,South,179,3.0,11.0,50,0.00,,,0.00,16.000000,,2013-07-23 02:43:00,
2013-07-22 21:53:00,87.0,66.0,-100.00,South,179,3.0,11.0,50,0.00,,,0.00,16.000000,,2013-07-23 02:53:00,
2013-07-22 22:01:00,87.0,66.0,-100.00,South,179,3.0,11.0,50,0.00,,,0.00,16.000000,,2013-07-23 03:01:00,
2013-07-22 22:33:00,85.0,67.0,-100.00,SE,145,5.0,6.0,55,0.00,,,0.00,0.000000,,2013-07-23 03:33:00,
2013-07-22 22:43:00,85.0,67.0,-100.00,SE,145,5.0,6.0,55,0.00,,,0.00,0.000000,,2013-07-23 03:43:00,
2013-07-22 22:52:00,85.0,67.0,-100.00,SE,145,5.0,6.0,55,0.00,,,0.00,0.000000,,2013-07-23 03:52:00,
2013-07-22 23:01:00,85.0,67.0,-100.00,SE,145,5.0,6.0,55,0.00,,,0.00,0.000000,,2013-07-23 04:01:00,
2013-07-22 23:32:00,84.0,68.0,-100.00,SSE,154,5.0,7.0,58,0.00,,,0.00,0.000000,,2013-07-23 04:32:00,
2013-07-22 23:43:00,84.0,68.0,-100.00,SSE,154,5.0,7.0,58,0.00,,,0.00,0.000000,,2013-07-23 04:43:00,
2013-07-22 23:53:00,84.0,68.0,-100.00,SSE,154,5.0,7.0,58,0.00,,,0.00,0.000000,,2013-07-23 04:53:00,